Time;durP1;ratioP1;P1;durP2;ratioP2;P2;SDS_P1;SDS_P2;PMS_P1;PMS_P2;Temp;Humidity;BMP_temperature;BMP_pressure;BME280_temperature;BME280_humidity;BME280_pressure;Samples;Min_cycle;Max_cycle;Signal;HPM_P1;HPM_P2
2021/08/07 00:00:19;;;;;;;1.30;0.80;;;;;;;21.56;42.48;94251.81;2967500;40;20060;-77
2021/08/07 00:02:20;;;;;;;1.45;0.88;;;;;;;21.56;42.52;94253.69;2963032;40;20085;-79
2021/08/07 00:04:22;;;;;;;3.08;1.02;;;;;;;21.46;42.55;94241.78;2964648;40;20043;-80
2021/08/07 00:06:24;;;;;;;2.13;0.98;;;;;;;21.45;42.85;94248.16;2964495;40;20062;-78
2021/08/07 00:08:26;;;;;;;1.52;0.98;;;;;;;21.36;43.17;94248.72;2965503;40;20052;-78
2021/08/07 00:10:28;;;;;;;1.77;0.80;;;;;;;21.39;42.94;94256.25;2964386;40;20157;-78
2021/08/07 00:12:29;;;;;;;2.13;0.95;;;;;;;21.43;42.80;94246.78;2963626;40;20079;-79
2021/08/07 00:14:31;;;;;;;1.77;1.10;;;;;;;21.45;42.83;94250.81;2963325;40;20148;-78
2021/08/07 00:16:33;;;;;;;1.45;0.93;;;;;;;21.39;42.90;94251.75;2963584;40;20451;-77
2021/08/07 00:18:35;;;;;;;2.83;0.90;;;;;;;21.44;43.01;94251.84;2961338;40;20061;-78
2021/08/07 00:20:37;;;;;;;1.65;1.08;;;;;;;21.45;42.96;94250.03;2966278;40;20422;-79
2021/08/07 00:22:38;;;;;;;2.13;0.90;;;;;;;21.48;42.83;94255.66;2965151;40;20437;-79
2021/08/07 00:24:40;;;;;;;1.90;1.10;;;;;;;21.47;43.16;94266.59;2965556;40;20298;-79
2021/08/07 00:26:42;;;;;;;2.47;1.00;;;;;;;21.43;42.90;94250.25;2970882;40;20045;-79
2021/08/07 00:28:43;;;;;;;1.85;0.93;;;;;;;21.46;42.79;94254.28;2964982;40;20109;-80
2021/08/07 00:30:45;;;;;;;1.80;1.00;;;;;;;21.46;42.81;94264.94;2965774;40;20061;-79
2021/08/07 00:32:47;;;;;;;1.60;1.00;;;;;;;21.47;42.81;94259.41;2957115;40;20059;-78
2021/08/07 00:34:49;;;;;;;3.17;1.00;;;;;;;21.51;42.77;94262.41;2963493;40;20087;-77
2021/08/07 00:36:50;;;;;;;1.90;0.98;;;;;;;21.48;42.87;94273.53;2973272;40;20105;-79
2021/08/07 00:38:52;;;;;;;1.90;1.00;;;;;;;21.52;42.68;94273.88;2967340;40;20068;-78
2021/08/07 00:40:54;;;;;;;3.17;1.17;;;;;;;21.52;42.87;94276.53;2966287;40;20063;-79
2021/08/07 00:42:56;;;;;;;1.83;1.10;;;;;;;21.54;42.55;94269.91;2966176;40;20056;-79
2021/08/07 00:44:57;;;;;;;3.25;1.15;;;;;;;21.50;43.17;94268.75;2966630;40;20496;-79
2021/08/07 00:46:59;;;;;;;2.45;1.20;;;;;;;21.52;42.76;94266.66;2966578;40;20505;-78
2021/08/07 00:49:01;;;;;;;2.22;1.00;;;;;;;21.54;42.73;94269.91;2966582;40;20133;-79
2021/08/07 00:51:03;;;;;;;1.52;1.05;;;;;;;21.54;42.77;94275.25;2961562;40;20153;-79
2021/08/07 00:53:06;;;;;;;1.35;0.82;;;;;;;21.51;42.92;94272.22;2965818;40;20047;-79
2021/08/07 00:55:08;;;;;;;2.05;1.10;;;;;;;21.52;42.96;94261.34;2966579;40;20353;-80
2021/08/07 00:57:10;;;;;;;1.77;1.17;;;;;;;21.50;43.10;94267.97;2964052;40;20048;-80
2021/08/07 00:59:12;;;;;;;1.73;0.95;;;;;;;21.45;43.18;94263.34;2966248;40;20392;-78
2021/08/07 01:01:14;;;;;;;1.45;1.02;;;;;;;21.46;43.24;94264.94;2964602;40;20154;-71
2021/08/07 01:03:34;;;;;;;1.25;1.00;;;;;;;21.47;43.28;94267.38;2961466;40;20056;-68
2021/08/07 01:06:01;;;;;;;1.48;1.15;;;;;;;21.47;43.22;94258.59;2962212;40;20052;-70
2021/08/07 01:08:08;;;;;;;1.88;1.10;;;;;;;21.44;43.32;94261.72;2964491;40;20172;-69
2021/08/07 01:10:25;;;;;;;1.60;1.20;;;;;;;21.41;43.35;94262.16;2964589;40;20037;-69
2021/08/07 01:12:41;;;;;;;2.22;1.58;;;;;;;21.40;43.44;94258.69;2962420;40;20085;-69
2021/08/07 01:14:43;;;;;;;1.40;1.00;;;;;;;21.39;43.06;94261.59;2961959;40;20432;-69
2021/08/07 01:16:46;;;;;;;2.70;1.10;;;;;;;21.32;43.26;94260.94;2962947;40;20044;-69
2021/08/07 01:18:49;;;;;;;2.60;1.10;;;;;;;21.34;43.50;94266.81;2964022;40;20178;-69
2021/08/07 01:20:53;;;;;;;1.60;1.00;;;;;;;21.32;43.56;94264.41;2954057;40;20395;-68
2021/08/07 01:23:01;;;;;;;1.67;1.10;;;;;;;21.26;43.87;94262.69;2960988;40;20445;-69
2021/08/07 01:25:05;;;;;;;2.55;1.17;;;;;;;21.22;43.83;94269.50;2962806;40;20299;-70
2021/08/07 01:27:13;;;;;;;1.75;1.30;;;;;;;21.21;44.01;94271.38;2964957;40;20062;-68
2021/08/07 01:29:19;;;;;;;1.50;1.10;;;;;;;21.22;43.98;94266.84;2963312;40;20056;-69
2021/08/07 01:31:47;;;;;;;1.85;1.00;;;;;;;21.24;43.94;94270.88;2964962;40;20107;-69
2021/08/07 01:33:49;;;;;;;1.70;1.13;;;;;;;21.21;44.01;94274.03;2958526;40;20040;-68
2021/08/07 01:35:50;;;;;;;1.85;1.00;;;;;;;21.13;44.30;94266.41;2955140;40;20089;-68
2021/08/07 01:37:52;;;;;;;7.43;1.23;;;;;;;21.13;44.52;94268.28;2963287;40;20053;-69
2021/08/07 01:39:55;;;;;;;1.23;0.90;;;;;;;21.17;44.23;94266.75;2964955;40;20194;-68
2021/08/07 01:41:57;;;;;;;2.70;1.20;;;;;;;21.15;44.25;94259.00;2964245;40;20088;-70
2021/08/07 01:43:59;;;;;;;1.88;1.10;;;;;;;21.13;44.35;94261.09;2962242;40;20303;-68
2021/08/07 01:46:00;;;;;;;2.05;1.15;;;;;;;21.15;44.37;94263.53;2962520;40;20060;-69
2021/08/07 01:48:07;;;;;;;2.20;1.20;;;;;;;21.15;44.39;94266.19;2963523;40;20052;-69
2021/08/07 01:50:21;;;;;;;1.90;1.10;;;;;;;21.15;44.24;94264.31;2963264;40;20095;-67
2021/08/07 01:52:27;;;;;;;1.50;0.90;;;;;;;21.18;44.35;94265.69;2965345;40;20048;-69
2021/08/07 01:54:33;;;;;;;2.30;1.20;;;;;;;21.17;44.21;94266.75;2965294;40;20126;-69
2021/08/07 01:56:42;;;;;;;1.73;1.15;;;;;;;21.13;44.55;94261.09;2964319;40;20105;-69
2021/08/07 01:58:48;;;;;;;2.00;1.38;;;;;;;21.16;44.36;94260.59;2970702;39;20044;-68
2021/08/07 02:00:50;;;;;;;2.08;1.20;;;;;;;21.15;44.34;94264.31;2961747;40;20089;-68
2021/08/07 02:02:54;;;;;;;1.58;1.10;;;;;;;21.15;44.49;94264.31;2962653;40;20080;-69
2021/08/07 02:04:57;;;;;;;1.95;1.30;;;;;;;21.13;44.41;94265.59;2953010;40;20410;-68
2021/08/07 02:06:59;;;;;;;;;;;;;;;21.13;44.36;94269.06;2963416;40;20093;-68
2021/08/07 02:09:01;;;;;;;1.92;1.20;;;;;;;21.15;44.39;94269.66;2965476;40;20016;-68
2021/08/07 02:11:03;;;;;;;1.65;0.90;;;;;;;21.15;44.29;94264.31;2963434;40;20048;-69
2021/08/07 02:13:06;;;;;;;3.88;1.58;;;;;;;21.18;44.39;94263.03;2964725;40;20049;-69
2021/08/07 02:15:09;;;;;;;1.52;1.10;;;;;;;21.21;44.32;94273.25;2965282;40;20048;-69
2021/08/07 02:17:11;;;;;;;2.92;1.35;;;;;;;21.22;44.17;94270.31;2965291;40;20053;-68
2021/08/07 02:19:13;;;;;;;2.35;1.15;;;;;;;21.22;44.46;94275.66;2963344;40;20047;-69
2021/08/07 02:21:16;;;;;;;1.58;1.20;;;;;;;21.22;44.27;94272.97;2961797;40;20162;-69
2021/08/07 02:23:18;;;;;;;2.75;1.27;;;;;;;21.21;44.15;94279.38;2962017;40;20064;-68
2021/08/07 02:25:20;;;;;;;2.72;1.40;;;;;;;21.23;44.15;94279.13;2963895;40;20076;-70
2021/08/07 02:27:22;;;;;;;3.95;1.27;;;;;;;21.20;43.97;94272.41;2963513;40;20125;-67
2021/08/07 02:29:24;;;;;;;1.60;1.00;;;;;;;21.20;43.87;94276.94;2964914;40;20060;-69
2021/08/07 02:31:26;;;;;;;1.67;1.23;;;;;;;21.17;44.03;94280.06;2955846;40;20064;-70
2021/08/07 02:33:29;;;;;;;2.05;1.10;;;;;;;21.18;44.23;94285.16;2962444;40;20065;-69
2021/08/07 02:35:31;;;;;;;2.25;1.45;;;;;;;21.20;44.08;94282.25;2962967;40;20548;-68
2021/08/07 02:37:33;;;;;;;2.05;1.27;;;;;;;21.20;44.24;94283.06;2964702;40;20393;-69
2021/08/07 02:39:35;;;;;;;1.75;1.10;;;;;;;21.19;44.26;94285.97;2960588;40;20172;-69
2021/08/07 02:41:37;;;;;;;3.05;1.23;;;;;;;21.19;44.21;94284.13;2964062;40;20077;-70
2021/08/07 02:43:42;;;;;;;2.47;1.23;;;;;;;21.17;44.41;94294.19;2962608;40;20120;-68
2021/08/07 02:45:44;;;;;;;1.95;1.15;;;;;;;21.17;44.26;94293.41;2962218;40;20057;-69
2021/08/07 02:47:46;;;;;;;2.85;1.20;;;;;;;21.17;44.21;94288.88;2961283;40;20056;-79
2021/08/07 02:49:49;;;;;;;3.03;1.20;;;;;;;21.15;44.27;94285.63;2965591;40;20052;-79
2021/08/07 02:51:51;;;;;;;1.92;1.33;;;;;;;21.12;44.32;94285.28;2965887;40;20133;-78
2021/08/07 02:53:53;;;;;;;1.58;1.30;;;;;;;21.09;44.31;94291.88;2967098;40;20087;-78
2021/08/07 02:55:55;;;;;;;7.35;1.40;;;;;;;21.10;44.37;94296.19;2965887;40;20229;-82
2021/08/07 02:57:57;;;;;;;5.72;1.20;;;;;;;21.04;44.42;94286.47;2965526;40;20118;-81
2021/08/07 02:59:59;;;;;;;3.03;1.17;;;;;;;20.96;44.19;94287.63;2964946;40;20065;-80
2021/08/07 03:02:00;;;;;;;2.10;1.20;;;;;;;20.94;44.54;94294.22;2965975;40;20093;-78
2021/08/07 03:04:03;;;;;;;1.75;1.20;;;;;;;20.88;44.56;94287.16;2963503;40;20275;-80
2021/08/07 03:06:04;;;;;;;2.33;1.40;;;;;;;20.90;44.53;94293.06;2963880;40;20703;-78
2021/08/07 03:08:06;;;;;;;2.78;1.50;;;;;;;20.90;44.61;94298.41;2966670;39;20052;-79
2021/08/07 03:10:09;;;;;;;3.08;1.10;;;;;;;20.93;44.54;94300.59;2965859;40;20140;-80
2021/08/07 03:12:11;;;;;;;2.55;1.40;;;;;;;20.91;44.36;94300.00;2965441;40;20536;-75
2021/08/07 03:14:13;;;;;;;3.67;1.30;;;;;;;20.91;44.54;94300.00;2963732;40;20092;-78
2021/08/07 03:16:15;;;;;;;1.77;1.15;;;;;;;20.84;44.62;94305.44;2966736;40;20056;-78
2021/08/07 03:18:17;;;;;;;2.00;1.52;;;;;;;20.80;44.84;94298.97;2964698;40;20397;-79
2021/08/07 03:20:19;;;;;;;1.92;1.30;;;;;;;20.70;45.11;94299.56;2965688;40;20056;-79
2021/08/07 03:22:20;;;;;;;3.42;1.05;;;;;;;20.66;44.97;94299.22;2967152;40;20130;-81
2021/08/07 03:24:22;;;;;;;2.80;1.10;;;;;;;20.62;45.27;94300.72;2964229;40;20053;-78
2021/08/07 03:26:24;;;;;;;2.10;1.30;;;;;;;20.58;45.25;94307.53;2963518;40;20362;-79
2021/08/07 03:28:26;;;;;;;2.70;1.20;;;;;;;20.61;45.24;94308.94;2963029;40;20064;-80
2021/08/07 03:30:28;;;;;;;2.22;1.23;;;;;;;20.64;45.29;94311.13;2965462;40;20062;-80
2021/08/07 03:32:30;;;;;;;2.17;1.40;;;;;;;20.72;45.03;94312.66;2965110;40;20313;-78
2021/08/07 03:34:31;;;;;;;2.58;1.30;;;;;;;20.72;45.10;94315.31;2965519;40;20169;-78
2021/08/07 03:36:33;;;;;;;3.00;1.30;;;;;;;20.67;45.08;94310.66;2964826;40;20149;-80
2021/08/07 03:38:35;;;;;;;2.10;1.42;;;;;;;20.67;45.24;94315.97;2966202;40;20052;-79
2021/08/07 03:40:37;;;;;;;1.67;1.10;;;;;;;20.64;45.41;94319.91;2964728;40;20435;-79
2021/08/07 03:42:40;;;;;;;2.15;1.35;;;;;;;20.64;45.41;94321.78;2964206;40;20048;-78
2021/08/07 03:44:42;;;;;;;4.78;1.33;;;;;;;20.61;45.39;94323.06;2963905;40;20061;-78
2021/08/07 03:46:44;;;;;;;1.65;1.27;;;;;;;20.68;45.35;94328.25;2966542;40;20152;-79
2021/08/07 03:48:45;;;;;;;1.67;1.15;;;;;;;20.75;45.45;94330.81;2965005;40;20064;-77
2021/08/07 03:50:47;;;;;;;2.10;1.45;;;;;;;20.72;45.33;94331.28;2964591;40;20049;-77
2021/08/07 03:52:49;;;;;;;4.15;1.50;;;;;;;20.75;45.29;94330.81;2968743;40;20071;-79
2021/08/07 03:54:51;;;;;;;1.77;1.35;;;;;;;20.71;45.31;94332.31;2965437;40;20052;-79
2021/08/07 03:56:53;;;;;;;2.30;1.40;;;;;;;20.74;45.36;94337.19;2965463;40;20217;-80
2021/08/07 03:58:54;;;;;;;1.67;1.10;;;;;;;20.81;45.14;94340.53;2964273;40;20048;-78
2021/08/07 04:00:58;;;;;;;2.33;1.40;;;;;;;20.82;45.08;94329.66;2965987;40;20074;-78
2021/08/07 04:03:00;;;;;;;3.65;1.52;;;;;;;20.83;45.16;94336.59;2967110;39;20052;-80
2021/08/07 04:05:02;;;;;;;4.80;1.73;;;;;;;20.89;45.40;94339.34;2965482;40;20302;-77
2021/08/07 04:07:04;;;;;;;1.90;1.30;;;;;;;20.92;45.01;94344.25;2963550;40;20137;-79
2021/08/07 04:09:07;;;;;;;2.53;1.52;;;;;;;20.96;44.85;94338.22;2965935;40;20057;-80
2021/08/07 04:11:09;;;;;;;1.92;1.50;;;;;;;20.86;45.16;94335.31;2966401;40;20056;-78
2021/08/07 04:13:11;;;;;;;2.72;1.55;;;;;;;20.91;45.10;94345.25;2965843;40;20677;-80
2021/08/07 04:15:13;;;;;;;1.80;1.30;;;;;;;21.02;44.85;94347.13;2965215;40;20422;-80
2021/08/07 04:17:14;;;;;;;2.53;1.30;;;;;;;21.11;44.62;94347.59;2967577;40;20041;-79
2021/08/07 04:19:16;;;;;;;2.15;1.30;;;;;;;21.18;44.56;94353.59;2967276;40;20061;-79
2021/08/07 04:21:18;;;;;;;2.90;1.25;;;;;;;21.25;44.47;94352.44;2964337;40;20076;-81
2021/08/07 04:23:19;;;;;;;2.55;1.17;;;;;;;21.23;44.68;94357.19;2966830;40;20060;-79
2021/08/07 04:25:21;;;;;;;2.33;1.45;;;;;;;21.23;44.48;94356.34;2966499;40;20059;-80
2021/08/07 04:27:23;;;;;;;3.30;1.20;;;;;;;21.33;44.21;94347.78;2965659;40;20049;-80
2021/08/07 04:29:25;;;;;;;2.80;1.45;;;;;;;21.31;44.45;94342.69;2966643;40;20103;-79
2021/08/07 04:31:26;;;;;;;2.58;1.55;;;;;;;21.21;44.57;94353.16;2964954;40;20078;-78
2021/08/07 04:33:28;;;;;;;3.75;1.40;;;;;;;21.26;44.54;94351.38;2967614;40;20132;-79
2021/08/07 04:35:30;;;;;;;2.38;1.50;;;;;;;21.32;44.36;94347.00;2965804;40;20064;-81
2021/08/07 04:37:43;;;;;;;2.67;1.27;;;;;;;21.40;44.23;94356.47;2963767;40;20472;-80
2021/08/07 04:39:45;;;;;;;2.35;1.52;;;;;;;21.42;44.47;94359.72;2965271;40;20084;-79
2021/08/07 04:41:47;;;;;;;2.20;1.30;;;;;;;21.27;44.60;94358.34;2966786;40;20068;-80
2021/08/07 04:43:49;;;;;;;3.67;1.42;;;;;;;21.28;44.63;94365.28;2968378;40;20483;-80
2021/08/07 04:45:51;;;;;;;2.75;1.80;;;;;;;21.34;44.62;94368.03;2964469;40;20041;-81
2021/08/07 04:48:00;;;;;;;3.33;1.55;;;;;;;21.47;44.26;94383.84;2967937;40;20060;-79
2021/08/07 04:50:03;;;;;;;5.63;2.08;;;;;;;21.53;44.33;94377.56;2968959;40;20329;-79
2021/08/07 04:52:05;;;;;;;3.92;1.38;;;;;;;21.62;44.37;94373.50;2964242;40;20116;-79
2021/08/07 04:54:06;;;;;;;1.67;1.20;;;;;;;21.72;44.26;94382.72;2965670;40;20055;-80
2021/08/07 04:56:08;;;;;;;2.45;1.40;;;;;;;21.77;44.03;94382.81;2964253;40;20052;-69
2021/08/07 04:58:14;;;;;;;2.60;1.50;;;;;;;21.83;44.09;94379.22;2964923;40;20045;-71
2021/08/07 05:00:17;;;;;;;2.78;1.42;;;;;;;21.84;43.82;94386.97;2962386;40;20041;-72
2021/08/07 05:02:18;;;;;;;3.75;1.52;;;;;;;21.89;43.68;94389.75;2965189;40;20411;-70
2021/08/07 05:04:21;;;;;;;3.60;1.30;;;;;;;21.92;43.26;94392.97;2964768;40;20060;-69
2021/08/07 05:06:22;;;;;;;4.00;1.38;;;;;;;21.91;43.50;94394.03;2964170;40;20140;-71
2021/08/07 05:08:24;;;;;;;2.67;1.48;;;;;;;21.95;43.51;94405.88;2965826;40;20063;-71
2021/08/07 05:10:26;;;;;;;2.53;1.40;;;;;;;22.02;43.22;94404.66;2964250;40;20330;-70
2021/08/07 05:12:27;;;;;;;2.88;1.55;;;;;;;21.97;42.94;94399.25;2965006;40;20052;-69
2021/08/07 05:14:29;;;;;;;4.13;1.30;;;;;;;21.97;43.14;94396.56;2964725;40;20426;-70
2021/08/07 05:16:31;;;;;;;2.50;1.40;;;;;;;22.00;43.15;94398.75;2962210;40;20068;-68
2021/08/07 05:18:33;;;;;;;1.88;1.30;;;;;;;22.02;43.28;94395.84;2966249;40;20068;-70
2021/08/07 05:20:35;;;;;;;6.80;1.90;;;;;;;22.04;43.16;94401.75;2964284;40;20056;-69
2021/08/07 05:22:37;;;;;;;3.60;1.60;;;;;;;21.74;43.92;94402.78;2965888;40;20426;-70
2021/08/07 05:24:39;;;;;;;2.20;1.48;;;;;;;21.71;44.25;94399.78;2964645;40;20146;-70
2021/08/07 05:26:40;;;;;;;2.55;1.60;;;;;;;21.48;44.98;94399.56;2965056;40;20060;-81
2021/08/07 05:28:42;;;;;;;3.05;1.80;;;;;;;21.55;44.59;94401.31;2966197;40;20041;-79
2021/08/07 05:30:44;;;;;;;2.65;1.63;;;;;;;21.70;43.95;94403.47;2971421;40;20118;-78
2021/08/07 05:32:46;;;;;;;3.38;1.35;;;;;;;21.83;43.75;94414.72;2964438;40;20456;-79
2021/08/07 05:34:48;;;;;;;1.92;1.08;;;;;;;22.00;43.62;94412.09;2967754;40;20093;-77
2021/08/07 05:36:50;;;;;;;1.85;1.33;;;;;;;22.16;43.28;94417.75;2964400;40;20050;-80
2021/08/07 05:38:51;;;;;;;4.30;1.50;;;;;;;22.31;43.02;94426.06;2956035;40;20045;-79
2021/08/07 05:40:53;;;;;;;1.70;1.13;;;;;;;22.16;43.13;94420.41;2966231;40;20109;-78
2021/08/07 05:42:56;;;;;;;1.92;1.27;;;;;;;22.12;43.01;94428.06;2973296;40;20046;-80
2021/08/07 05:44:57;;;;;;;3.88;1.30;;;;;;;22.34;42.88;94424.75;2965169;40;20069;-79
2021/08/07 05:46:59;;;;;;;6.65;1.50;;;;;;;22.27;42.94;94427.59;2965007;40;20133;-79
2021/08/07 05:49:01;;;;;;;4.18;1.60;;;;;;;22.42;42.98;94427.06;2964907;40;20298;-78
2021/08/07 05:51:02;;;;;;;2.00;1.40;;;;;;;22.27;43.03;94431.06;2962158;40;20141;-79
2021/08/07 05:53:04;;;;;;;2.17;1.40;;;;;;;22.24;43.17;94439.53;2967225;40;20137;-79
2021/08/07 05:55:07;;;;;;;2.72;1.40;;;;;;;22.36;43.30;94439.50;2966060;40;20056;-80
2021/08/07 05:57:09;;;;;;;1.65;1.13;;;;;;;22.23;43.16;94445.09;2964966;40;20322;-78
2021/08/07 05:59:11;;;;;;;2.55;1.40;;;;;;;22.24;42.99;94442.22;2964680;40;20428;-82
2021/08/07 06:01:13;;;;;;;3.30;1.23;;;;;;;22.08;43.53;94438.38;2962149;40;20278;-81
2021/08/07 06:03:15;;;;;;;2.80;1.02;;;;;;;22.09;43.30;94452.53;2965536;40;20079;-78
2021/08/07 06:05:17;;;;;;;2.00;1.30;;;;;;;21.98;43.87;94432.03;2967156;40;20044;-80
2021/08/07 06:07:19;;;;;;;2.33;1.40;;;;;;;22.18;43.44;94443.13;2966495;40;20263;-79
2021/08/07 06:09:21;;;;;;;3.40;1.42;;;;;;;22.28;43.17;94442.53;2966889;40;20100;-78
2021/08/07 06:11:22;;;;;;;3.00;1.92;;;;;;;22.17;43.69;94436.16;2974912;40;20537;-80
2021/08/07 06:13:25;;;;;;;2.20;1.40;;;;;;;21.62;44.55;94445.47;2968022;40;20055;-81
2021/08/07 06:15:27;;;;;;;2.00;1.40;;;;;;;21.27;45.72;94440.94;2965362;40;20060;-80
2021/08/07 06:17:29;;;;;;;2.67;1.85;;;;;;;21.20;46.08;94437.56;2967682;40;20504;-79
2021/08/07 06:19:30;;;;;;;1.88;1.20;;;;;;;21.52;45.53;94447.09;2966407;40;20086;-81
2021/08/07 06:21:32;;;;;;;1.88;1.30;;;;;;;21.85;44.95;94443.78;2966130;40;20246;-78
2021/08/07 06:23:34;;;;;;;4.75;1.20;;;;;;;22.12;44.35;94444.06;2968702;40;20056;-82
2021/08/07 06:25:36;;;;;;;2.40;1.63;;;;;;;22.17;43.96;94448.69;2965162;40;20096;-83
2021/08/07 06:27:38;;;;;;;2.42;1.40;;;;;;;21.72;44.66;94457.38;2967198;40;20058;-79
2021/08/07 06:29:39;;;;;;;3.25;1.30;;;;;;;21.49;45.32;94453.72;2968469;40;20058;-79
2021/08/07 06:31:41;;;;;;;2.33;1.45;;;;;;;21.48;45.40;94449.41;2966879;40;20100;-78
2021/08/07 06:33:43;;;;;;;3.28;2.13;;;;;;;21.37;45.72;94448.34;2966730;40;20402;-80
2021/08/07 06:35:44;;;;;;;2.72;1.83;;;;;;;21.43;45.77;94441.31;2965747;40;20084;-80
2021/08/07 06:37:46;;;;;;;2.38;1.40;;;;;;;21.64;45.54;94451.38;2964798;40;20142;-82
2021/08/07 06:39:49;;;;;;;2.60;1.40;;;;;;;22.00;44.61;94451.28;2966614;40;20330;-80
2021/08/07 06:41:50;;;;;;;2.33;1.50;;;;;;;22.32;43.58;94459.69;2966651;40;20075;-80
2021/08/07 06:43:52;;;;;;;3.50;1.30;;;;;;;22.43;43.78;94461.50;2964913;40;20059;-79
2021/08/07 06:45:54;;;;;;;1.90;1.20;;;;;;;22.63;42.77;94465.63;2965410;40;20093;-80
2021/08/07 06:48:14;;;;;;;2.47;1.42;;;;;;;22.77;42.85;94456.22;2967751;40;20364;-79
2021/08/07 06:50:16;;;;;;;2.13;1.48;;;;;;;22.65;42.93;94463.47;2468386;40;10000394;-79
2021/08/07 06:52:18;;;;;;;2.42;1.38;;;;;;;22.25;43.54;94459.84;2964982;40;20041;-80
2021/08/07 06:54:19;;;;;;;3.28;1.40;;;;;;;21.84;44.37;94469.66;2962942;40;20059;-76
2021/08/07 06:56:21;;;;;;;3.22;1.27;;;;;;;22.22;43.66;94462.13;2963490;40;20082;-76
2021/08/07 06:58:22;;;;;;;1.60;1.08;;;;;;;22.40;42.81;94456.66;2964192;40;20066;-77
2021/08/07 07:00:24;;;;;;;1.60;1.10;;;;;;;22.74;42.57;94451.38;2964408;40;20068;-79
2021/08/07 07:02:27;;;;;;;4.60;1.10;;;;;;;23.01;41.62;94450.78;2965615;40;20060;-76
2021/08/07 07:04:29;;;;;;;3.28;1.58;;;;;;;23.18;41.00;94456.13;2717495;40;10000357;-77
2021/08/07 07:06:31;;;;;;;2.25;1.27;;;;;;;23.41;40.67;94455.16;2964140;40;20056;-86
2021/08/07 07:08:33;;;;;;;3.08;1.08;;;;;;;23.20;40.56;94462.84;2961855;40;20213;-81
2021/08/07 07:10:37;;;;;;;1.50;1.00;;;;;;;22.78;41.44;94460.53;2963525;40;20048;-80
2021/08/07 07:12:41;;;;;;;3.77;1.20;;;;;;;22.99;40.83;94455.53;2715417;40;10000823;-79
2021/08/07 07:14:42;;;;;;;1.90;1.20;;;;;;;;;;2965997;40;20433;-84
2021/08/07 07:16:44;;;;;;;1.85;1.27;;;;;;;23.64;39.68;94454.13;2965612;40;20375;-78
2021/08/07 07:18:46;;;;;;;2.22;1.20;;;;;;;23.88;38.85;94463.59;2969332;40;20322;-82
2021/08/07 07:20:48;;;;;;;1.42;1.00;;;;;;;24.04;38.59;94461.09;2964557;40;20064;-81
2021/08/07 07:22:50;;;;;;;3.00;1.30;;;;;;;24.13;38.16;94451.56;2719009;39;10000595;-77
2021/08/07 07:24:52;;;;;;;5.28;2.13;;;;;;;24.09;38.51;94462.00;2965495;39;20056;-80
2021/08/07 07:26:54;;;;;;;5.35;1.40;;;;;;;24.13;38.38;94459.59;2966647;40;20048;-81
2021/08/07 07:28:56;;;;;;;1.48;0.80;;;;;;;24.37;37.35;94462.84;2963122;40;20092;-80
2021/08/07 07:30:58;;;;;;;2.13;1.10;;;;;;;24.35;36.47;94459.63;2963356;40;20056;-79
2021/08/07 07:33:00;;;;;;;1.83;0.88;;;;;;;24.33;36.81;94461.72;2965421;40;20447;-81
2021/08/07 07:35:03;;;;;;;1.45;0.90;;;;;;;24.14;35.59;94468.47;2961944;40;20105;-81
2021/08/07 07:37:06;;;;;;;2.90;1.27;;;;;;;23.81;36.32;94459.47;2962087;40;20060;-81
2021/08/07 07:39:07;;;;;;;2.45;0.80;;;;;;;23.98;36.62;94460.22;2962483;40;20448;-81
2021/08/07 07:41:10;;;;;;;3.28;1.80;;;;;;;24.22;36.05;94457.28;2963908;40;20361;-80
2021/08/07 07:43:14;;;;;;;2.00;1.20;;;;;;;24.25;35.98;94454.94;2967223;40;20059;-80
2021/08/07 07:45:16;;;;;;;1.63;0.85;;;;;;;24.36;35.94;94455.06;2965124;40;20056;-79
2021/08/07 07:47:18;;;;;;;2.65;0.98;;;;;;;24.62;35.69;94451.59;2964644;40;20080;-80
2021/08/07 07:49:19;;;;;;;2.42;1.20;;;;;;;24.82;35.48;94453.66;2968536;40;20125;-81
2021/08/07 07:51:21;;;;;;;3.08;1.13;;;;;;;25.02;34.90;94460.28;2966452;40;20150;-82
2021/08/07 07:53:23;;;;;;;5.53;1.27;;;;;;;24.61;35.46;94458.03;2966339;40;20088;-80
2021/08/07 07:55:43;;;;;;;1.88;1.23;;;;;;;24.47;35.97;94459.47;2964694;40;20114;-77
2021/08/07 07:57:45;;;;;;;2.40;1.67;;;;;;;24.73;35.79;94465.91;2964396;40;20137;-79
2021/08/07 07:59:48;;;;;;;2.55;1.38;;;;;;;24.89;34.78;94462.31;2965590;40;20098;-82
2021/08/07 08:01:49;;;;;;;1.60;1.00;;;;;;;24.30;35.96;94467.56;2964633;40;20071;-79
2021/08/07 08:03:52;;;;;;;1.98;0.85;;;;;;;24.27;35.93;94476.09;2963554;40;20071;-80
2021/08/07 08:05:54;;;;;;;2.28;1.10;;;;;;;23.88;36.86;94471.63;2964832;40;20064;-78
2021/08/07 08:07:56;;;;;;;3.23;1.00;;;;;;;23.72;36.94;94469.75;2963613;40;20049;-78
2021/08/07 08:09:58;;;;;;;1.42;1.00;;;;;;;24.03;36.93;94475.56;2964835;40;20595;-81
2021/08/07 08:11:59;;;;;;;1.77;1.02;;;;;;;23.95;37.08;94484.81;2964650;40;20060;-81
2021/08/07 08:14:01;;;;;;;2.42;1.10;;;;;;;23.91;36.87;94483.69;2964276;40;20325;-77
2021/08/07 08:16:05;;;;;;;1.73;1.00;;;;;;;24.12;37.01;94484.75;2966207;40;20133;-79
2021/08/07 08:18:08;;;;;;;1.92;1.10;;;;;;;24.35;36.47;94488.22;2964598;40;20051;-76
2021/08/07 08:20:10;;;;;;;;;;;;;;;24.73;35.99;94477.44;2964836;40;20454;-77
2021/08/07 08:22:12;;;;;;;3.85;1.30;;;;;;;24.83;35.72;94483.97;2961022;40;20010;-78
2021/08/07 08:24:14;;;;;;;1.80;0.95;;;;;;;24.72;35.62;94477.69;2965431;40;20067;-80
2021/08/07 08:26:16;;;;;;;4.72;1.10;;;;;;;24.30;35.97;94481.75;2965120;40;20060;-79
2021/08/07 08:28:18;;;;;;;2.90;1.10;;;;;;;24.57;35.72;94472.19;2961346;40;20065;-80
2021/08/07 08:30:19;;;;;;;1.27;0.98;;;;;;;24.81;35.20;94476.19;2963220;40;20142;-78
2021/08/07 08:32:21;;;;;;;1.38;1.02;;;;;;;25.18;34.52;94470.06;2965808;40;20113;-79
2021/08/07 08:34:23;;;;;;;1.42;0.80;;;;;;;25.39;34.20;94470.25;2964739;40;20055;-79
2021/08/07 08:36:24;;;;;;;1.58;0.90;;;;;;;25.68;33.66;94476.06;2962618;40;20292;-80
2021/08/07 08:38:26;;;;;;;3.67;1.23;;;;;;;25.61;33.79;94476.31;2964865;40;20141;-78
2021/08/07 08:40:28;;;;;;;1.35;1.00;;;;;;;25.44;34.00;94484.50;2964199;40;20159;-80
2021/08/07 08:42:30;;;;;;;5.70;3.35;;;;;;;25.23;34.51;94482.72;2964063;40;20418;-81
2021/08/07 08:44:34;;;;;;;4.13;1.05;;;;;;;24.84;34.85;94489.03;2964886;40;20068;-78
2021/08/07 08:46:36;;;;;;;2.25;1.23;;;;;;;25.13;34.73;94486.13;2964201;40;20121;-79
2021/08/07 08:48:38;;;;;;;2.60;1.30;;;;;;;24.91;34.67;94483.50;2964492;40;20117;-79
2021/08/07 08:50:40;;;;;;;2.10;1.17;;;;;;;24.90;35.21;94490.72;2965556;40;20113;-77
2021/08/07 08:52:42;;;;;;;1.75;1.10;;;;;;;25.20;34.89;94489.41;2965996;40;20056;-79
2021/08/07 08:54:44;;;;;;;2.25;1.27;;;;;;;25.56;34.49;94487.00;2965176;40;20072;-79
2021/08/07 08:56:47;;;;;;;1.92;1.02;;;;;;;25.83;33.98;94481.53;2960430;40;20428;-78
2021/08/07 08:58:49;;;;;;;1.60;1.00;;;;;;;26.12;33.49;94486.56;2963457;40;20138;-75
2021/08/07 09:00:51;;;;;;;4.55;1.20;;;;;;;26.38;33.29;94478.63;2967242;40;20060;-79
2021/08/07 09:02:53;;;;;;;5.15;1.30;;;;;;;26.62;33.05;94476.28;2967500;40;20044;-78
2021/08/07 09:04:55;;;;;;;3.35;1.10;;;;;;;26.82;32.37;94475.53;2963331;40;20056;-79
2021/08/07 09:06:57;;;;;;;2.50;1.30;;;;;;;26.87;32.00;94480.94;2970215;40;20132;-81
2021/08/07 09:09:09;;;;;;;4.15;1.38;;;;;;;26.80;32.34;94486.53;2962875;40;20104;-80
2021/08/07 09:11:15;;;;;;;2.63;1.33;;;;;;;26.67;32.12;94484.34;2965777;40;20468;-79
2021/08/07 09:13:19;;;;;;;5.15;2.22;;;;;;;26.34;32.44;94497.13;2966099;40;20144;-80
2021/08/07 09:15:23;;;;;;;3.42;2.13;;;;;;;25.53;33.87;94490.19;2970672;39;20060;-78
2021/08/07 09:17:25;;;;;;;2.80;1.48;;;;;;;25.60;33.70;94484.59;2965017;40;20421;-81
2021/08/07 09:19:39;;;;;;;3.58;1.20;;;;;;;25.40;33.23;94496.00;2964962;40;20432;-79
2021/08/07 09:21:41;;;;;;;2.10;1.27;;;;;;;25.27;33.70;94487.31;2964824;40;20060;-80
2021/08/07 09:23:43;;;;;;;4.22;1.13;;;;;;;25.15;34.12;94494.72;2969828;40;20106;-78
2021/08/07 09:25:45;;;;;;;2.28;1.30;;;;;;;25.28;34.17;94486.25;2968393;40;20406;-79
2021/08/07 09:27:49;;;;;;;4.43;1.13;;;;;;;25.72;33.79;94493.28;2964982;40;20052;-79
2021/08/07 09:29:51;;;;;;;2.60;1.38;;;;;;;25.74;33.56;94491.13;2965058;40;20476;-78
2021/08/07 09:31:59;;;;;;;2.28;1.63;;;;;;;25.37;33.60;94496.53;2967030;40;20581;-80
2021/08/07 09:34:17;;;;;;;1.88;1.10;;;;;;;24.97;34.57;94495.88;2963342;40;20057;-78
2021/08/07 09:36:49;;;;;;;2.55;1.00;;;;;;;25.31;34.06;94495.66;2964857;40;20435;-79
2021/08/07 09:38:50;;;;;;;3.33;1.20;;;;;;;25.51;33.73;94485.09;2963480;40;20559;-80